createdAt,value
2019-06-08T00:44:40.978Z,29.30
2019-06-08T00:47:10.640Z,29.40
2019-06-08T00:49:40.388Z,29.40
2019-06-08T00:52:10.187Z,29.50
2019-06-08T00:54:40.024Z,29.50
2019-06-08T00:57:09.901Z,29.50
2019-06-08T00:59:39.639Z,29.50
2019-06-08T01:02:09.469Z,29.60
2019-06-08T01:04:39.308Z,29.70
2019-06-08T01:07:09.290Z,29.70
2019-06-08T01:09:39.113Z,29.70
2019-06-08T01:12:08.962Z,29.80
2019-06-08T01:14:38.789Z,29.90
2019-06-08T01:17:08.599Z,29.90
2019-06-08T01:19:38.351Z,29.90
2019-06-08T01:22:08.078Z,30.00
2019-06-08T01:24:37.984Z,30.00
2019-06-08T01:27:11.266Z,30.00
2019-06-08T01:29:41.136Z,30.10
2019-06-08T01:32:10.819Z,30.10
2019-06-08T01:34:40.592Z,30.10
2019-06-08T01:37:10.437Z,30.10
2019-06-08T01:39:40.222Z,30.20
2019-06-08T01:42:09.997Z,30.20
2019-06-08T01:44:40.043Z,30.30
2019-06-08T01:47:09.863Z,30.30
2019-06-08T01:49:46.318Z,30.40
2019-06-08T01:52:16.030Z,30.40
2019-06-08T01:54:45.800Z,30.40
2019-06-08T01:57:15.676Z,30.50
2019-06-08T01:59:45.540Z,30.50
2019-06-08T02:02:15.379Z,30.60
2019-06-08T02:04:45.143Z,30.70
2019-06-08T02:07:14.901Z,30.70
2019-06-08T02:09:44.642Z,30.70
2019-06-08T02:12:14.587Z,30.80
2019-06-08T02:14:47.430Z,30.80
2019-06-08T02:17:18.600Z,30.80
2019-06-08T02:19:48.503Z,30.80
2019-06-08T02:22:19.462Z,30.90
2019-06-08T02:24:49.324Z,31.00
2019-06-08T02:27:19.218Z,31.00
2019-06-08T02:29:49.044Z,31.10
2019-06-08T02:32:18.863Z,31.20
2019-06-08T02:34:48.600Z,31.20
2019-06-08T02:37:18.428Z,31.30
2019-06-08T02:39:48.267Z,31.30
2019-06-08T02:42:18.125Z,31.40
2019-06-08T02:44:47.868Z,31.50
2019-06-08T02:47:17.571Z,31.50
2019-06-08T02:49:47.325Z,31.50
2019-06-08T02:52:18.503Z,31.50
2019-06-08T02:54:48.535Z,31.60
2019-06-08T02:57:18.356Z,31.60
2019-06-08T02:59:48.244Z,31.70
2019-06-08T03:02:18.351Z,31.80
2019-06-08T03:04:48.100Z,31.80
2019-06-08T03:07:18.018Z,31.90
2019-06-08T03:09:47.903Z,31.90
2019-06-08T03:12:17.712Z,31.90
2019-06-08T03:14:48.399Z,31.90
2019-06-08T03:17:18.229Z,31.90
2019-06-08T03:19:47.996Z,31.90
2019-06-08T03:22:17.790Z,31.90
2019-06-08T03:24:47.617Z,31.90
2019-06-08T03:27:17.479Z,31.90
2019-06-08T03:29:47.315Z,32.00
2019-06-08T03:32:17.202Z,32.00
2019-06-08T03:34:55.116Z,32.00
2019-06-08T03:37:18.268Z,32.10
2019-06-08T03:39:49.462Z,32.10
2019-06-08T03:42:19.308Z,32.20
2019-06-08T03:44:49.182Z,32.30
2019-06-08T03:47:19.041Z,32.40
2019-06-08T03:49:56.606Z,32.50
2019-06-08T03:52:19.999Z,32.60
2019-06-08T03:54:49.844Z,32.60
2019-06-08T03:57:19.672Z,32.70
2019-06-08T03:59:49.341Z,32.80
2019-06-08T04:02:19.098Z,32.80
2019-06-08T04:04:49.995Z,32.90
2019-06-08T04:07:19.895Z,32.90
2019-06-08T04:09:49.956Z,32.90
2019-06-08T04:12:19.876Z,33.00
2019-06-08T04:14:50.493Z,33.00
2019-06-08T04:17:20.388Z,33.10
2019-06-08T04:20:09.536Z,33.10
2019-06-08T04:22:22.054Z,33.20
2019-06-08T04:24:51.751Z,33.30
2019-06-08T04:27:21.557Z,33.30
2019-06-08T04:29:51.294Z,33.40
2019-06-08T04:32:21.243Z,33.40
2019-06-08T04:34:51.424Z,33.50
2019-06-08T04:37:21.223Z,33.50
2019-06-08T04:39:51.082Z,33.60
2019-06-08T04:42:20.950Z,33.60
2019-06-08T04:44:50.783Z,33.70
2019-06-08T04:47:20.640Z,33.70
2019-06-08T04:49:50.538Z,33.70
2019-06-08T04:52:20.368Z,33.80
2019-06-08T04:54:50.197Z,33.80
2019-06-08T04:57:19.951Z,33.80
2019-06-08T04:59:50.387Z,33.80
2019-06-08T05:02:20.412Z,33.80
2019-06-08T05:04:50.248Z,33.80
2019-06-08T05:07:20.547Z,33.90
2019-06-08T05:09:50.257Z,33.80
2019-06-08T05:12:20.035Z,33.90
2019-06-08T05:14:49.927Z,33.90
2019-06-08T05:17:19.789Z,33.90
2019-06-08T05:19:50.565Z,34.00
2019-06-08T05:22:20.527Z,34.00
2019-06-08T05:24:50.431Z,34.00
2019-06-08T05:27:20.284Z,34.00
2019-06-08T05:29:50.073Z,34.10
2019-06-08T05:32:20.023Z,34.10
2019-06-08T05:34:49.778Z,34.10
2019-06-08T05:37:19.655Z,34.10
2019-06-08T05:39:49.920Z,34.10
2019-06-08T05:42:19.798Z,34.10
2019-06-08T05:44:50.296Z,34.10
2019-06-08T05:47:20.238Z,34.00
2019-06-08T05:49:50.122Z,34.10
2019-06-08T05:52:19.932Z,34.10
2019-06-08T05:54:50.173Z,34.10
2019-06-08T05:57:20.137Z,34.20
2019-06-08T05:59:50.398Z,34.20
2019-06-08T06:02:20.261Z,34.30
2019-06-08T06:04:53.430Z,34.30
2019-06-08T06:07:21.315Z,34.30
2019-06-08T06:09:51.256Z,34.30
2019-06-08T06:12:21.006Z,34.30
2019-06-08T06:14:51.278Z,34.40
2019-06-08T06:17:21.145Z,34.40
2019-06-08T06:19:51.525Z,34.40
2019-06-08T06:22:21.488Z,34.40
2019-06-08T06:24:51.909Z,34.40
2019-06-08T06:27:21.789Z,34.40
2019-06-08T06:29:52.051Z,34.50
2019-06-08T06:32:21.876Z,34.50
2019-06-08T06:34:52.200Z,34.50
2019-06-08T06:37:22.177Z,34.50
2019-06-08T06:39:52.347Z,34.50
2019-06-08T06:42:24.711Z,34.50
2019-06-08T06:44:53.268Z,34.50
2019-06-08T06:47:23.040Z,34.50
2019-06-08T06:49:52.805Z,34.50
2019-06-08T06:52:22.894Z,34.50
2019-06-08T06:54:53.265Z,34.50
2019-06-08T06:57:23.175Z,34.50
2019-06-08T06:59:54.016Z,34.50
2019-06-08T07:02:23.880Z,34.40
2019-06-08T07:04:54.331Z,34.50
2019-06-08T07:07:24.237Z,34.50
2019-06-08T07:09:54.939Z,34.50
2019-06-08T07:12:24.874Z,34.50
2019-06-08T07:14:55.494Z,34.50
2019-06-08T07:17:25.278Z,34.50
2019-06-08T07:19:55.019Z,34.50
2019-06-08T07:22:24.844Z,34.50
2019-06-08T07:24:54.651Z,34.50
2019-06-08T07:27:24.441Z,34.60
2019-06-08T07:29:54.780Z,34.60
2019-06-08T07:32:24.730Z,34.60
2019-06-08T07:34:55.340Z,34.60
2019-06-08T07:37:25.244Z,34.60
2019-06-08T07:39:56.109Z,34.60
2019-06-08T07:42:26.016Z,34.70
2019-06-08T07:44:56.164Z,34.70
2019-06-08T07:47:25.987Z,34.80
2019-06-08T07:49:55.819Z,34.80
2019-06-08T07:52:25.698Z,34.70
2019-06-08T07:54:56.573Z,34.80
2019-06-08T07:57:26.435Z,34.80
2019-06-08T07:59:56.341Z,34.70
2019-06-08T08:02:26.596Z,34.70
2019-06-08T08:04:56.792Z,34.70
2019-06-08T08:07:26.626Z,34.70
2019-06-08T08:09:56.978Z,34.70
2019-06-08T08:12:26.960Z,34.70
2019-06-08T08:14:58.063Z,34.70
2019-06-08T08:17:27.853Z,34.70
2019-06-08T08:19:57.686Z,34.70
2019-06-08T08:22:29.458Z,34.70
2019-06-08T08:25:04.223Z,34.60
2019-06-08T08:27:29.717Z,34.70
2019-06-08T08:30:01.485Z,34.70
2019-06-08T08:32:30.491Z,34.70
2019-06-08T08:35:02.663Z,34.70
2019-06-08T08:37:31.370Z,34.70
2019-06-08T08:40:01.700Z,34.70
2019-06-08T08:42:31.474Z,34.70
2019-06-08T08:45:05.131Z,34.70
2019-06-08T08:47:32.281Z,34.80
2019-06-08T08:50:02.286Z,34.70
2019-06-08T08:52:37.205Z,34.80
2019-06-08T08:55:03.115Z,34.80
2019-06-08T08:57:32.815Z,34.70
2019-06-08T09:00:04.889Z,34.70
2019-06-08T09:02:33.651Z,34.80
2019-06-08T09:05:03.882Z,34.70
2019-06-08T09:07:33.851Z,34.70
2019-06-08T09:10:04.014Z,34.70
2019-06-08T09:12:34.021Z,34.60
2019-06-08T09:15:03.978Z,34.60
2019-06-08T09:17:33.953Z,34.60
2019-06-08T09:20:03.954Z,34.60
2019-06-08T09:22:47.149Z,34.60
2019-06-08T09:25:08.632Z,34.60
2019-06-08T09:27:38.233Z,34.60
2019-06-08T09:30:08.859Z,34.60
2019-06-08T09:32:38.667Z,34.60
2019-06-08T09:35:09.394Z,34.50
2019-06-08T09:37:39.361Z,34.50
2019-06-08T09:40:09.485Z,34.50
2019-06-08T09:42:39.319Z,34.50
2019-06-08T09:45:09.328Z,34.50
2019-06-08T09:47:39.091Z,34.50
2019-06-08T09:50:09.575Z,34.50
2019-06-08T09:52:41.350Z,34.50
2019-06-08T09:55:10.731Z,34.40
2019-06-08T09:57:40.693Z,34.40
2019-06-08T10:00:17.726Z,34.30
2019-06-08T10:02:41.518Z,34.40
2019-06-08T10:05:11.962Z,34.30
2019-06-08T10:07:41.970Z,34.30
2019-06-08T10:10:11.907Z,34.30
2019-06-08T10:12:42.037Z,34.20
2019-06-08T10:15:11.862Z,34.30
2019-06-08T10:17:41.746Z,34.20
2019-06-08T10:20:11.450Z,34.20
2019-06-08T10:22:41.256Z,34.20
2019-06-08T10:25:11.407Z,34.20
2019-06-08T10:27:41.631Z,34.20
2019-06-08T10:30:11.512Z,34.10
2019-06-08T10:32:41.388Z,34.00
2019-06-08T10:35:11.290Z,34.10
2019-06-08T10:37:41.105Z,34.00
2019-06-08T10:40:11.007Z,34.00
2019-06-08T10:42:40.816Z,34.00
2019-06-08T10:45:14.410Z,34.00
2019-06-08T10:47:41.886Z,33.90
2019-06-08T10:52:47.469Z,33.90
2019-06-08T10:55:18.079Z,33.90
2019-06-08T10:57:48.187Z,33.80
2019-06-08T11:00:23.575Z,33.80
2019-06-08T11:02:50.334Z,33.80
2019-06-08T11:05:20.543Z,33.70
2019-06-08T11:07:50.496Z,33.70
2019-06-08T11:10:20.142Z,33.70
2019-06-08T11:12:50.095Z,33.70
2019-06-08T11:15:20.298Z,33.60
2019-06-08T11:17:50.326Z,33.60
2019-06-08T11:20:20.404Z,33.60
2019-06-08T11:22:50.385Z,33.60
2019-06-08T11:25:20.259Z,33.50
2019-06-08T11:27:50.179Z,33.50
2019-06-08T11:30:24.157Z,33.50
2019-06-08T11:32:51.415Z,33.40
2019-06-08T11:35:21.208Z,33.40
2019-06-08T11:37:50.911Z,33.40
2019-06-08T11:40:21.145Z,33.40
2019-06-08T11:42:51.056Z,33.40
2019-06-08T11:45:20.934Z,33.30
2019-06-08T11:47:50.748Z,33.20
2019-06-08T11:50:21.750Z,33.20
2019-06-08T11:52:51.689Z,33.20
2019-06-08T11:55:21.603Z,33.20
2019-06-08T11:57:51.320Z,33.20
2019-06-08T12:00:27.586Z,33.20
2019-06-08T12:02:53.578Z,33.10
2019-06-08T12:05:23.929Z,33.10
2019-06-08T12:07:53.847Z,33.00
2019-06-08T12:10:23.577Z,33.00
2019-06-08T12:12:53.178Z,33.00
2019-06-08T12:15:22.979Z,32.90
2019-06-08T12:17:52.968Z,33.00
2019-06-08T12:20:24.429Z,32.90
2019-06-08T12:22:53.921Z,32.90
2019-06-08T12:25:23.807Z,32.80
2019-06-08T12:27:53.466Z,32.80
2019-06-08T12:30:26.241Z,32.80
2019-06-08T12:32:54.426Z,32.80
2019-06-08T12:35:24.342Z,32.70
2019-06-08T12:37:54.258Z,32.70
2019-06-08T12:40:24.199Z,32.70
2019-06-08T12:42:54.253Z,32.70
2019-06-08T12:45:24.180Z,32.60
2019-06-08T12:47:54.120Z,32.60
2019-06-08T12:50:24.188Z,32.60
2019-06-08T12:52:54.083Z,32.60
2019-06-08T12:55:25.383Z,32.50
2019-06-08T12:57:57.963Z,32.50
2019-06-08T13:00:28.071Z,32.50
2019-06-08T13:02:58.110Z,32.50
2019-06-08T13:05:28.072Z,32.50
2019-06-08T13:07:58.947Z,32.50
2019-06-08T13:10:28.788Z,32.50
2019-06-08T13:12:58.650Z,32.50
2019-06-08T13:15:30.913Z,32.50
2019-06-08T13:17:59.509Z,32.40
2019-06-08T13:20:29.405Z,32.40
2019-06-08T13:23:00.493Z,32.30
2019-06-08T13:25:39.593Z,32.30
2019-06-08T13:28:01.393Z,32.30
2019-06-08T13:30:32.456Z,32.30
2019-06-08T13:33:02.395Z,32.30
2019-06-08T13:35:32.446Z,32.30
2019-06-08T13:38:02.200Z,32.30
2019-06-08T13:40:32.095Z,32.20
2019-06-08T13:43:01.960Z,32.20
2019-06-08T13:45:31.667Z,32.20
2019-06-08T13:48:01.624Z,32.20
2019-06-08T13:50:31.460Z,32.10
2019-06-08T13:53:01.322Z,32.10
2019-06-08T13:55:47.655Z,32.10
2019-06-08T13:58:02.451Z,32.10
2019-06-08T14:00:33.478Z,32.10
2019-06-08T14:03:03.216Z,32.00
2019-06-08T14:05:33.226Z,32.00
2019-06-08T14:08:04.519Z,31.90
2019-06-08T14:10:39.864Z,31.90
2019-06-08T14:13:11.575Z,31.90
2019-06-08T14:15:41.259Z,31.90
2019-06-08T14:18:11.067Z,31.90
2019-06-08T14:20:40.925Z,31.80
2019-06-08T14:23:10.739Z,31.80
2019-06-08T14:25:50.608Z,31.80
2019-06-08T14:28:11.626Z,31.80
2019-06-08T14:30:41.463Z,31.80
2019-06-08T14:33:11.969Z,31.80
2019-06-08T14:35:41.946Z,31.80
2019-06-08T14:38:11.796Z,31.80
2019-06-08T14:40:41.745Z,31.80
2019-06-08T14:43:11.405Z,31.80
2019-06-08T14:45:41.233Z,31.80
2019-06-08T14:48:10.932Z,31.70
2019-06-08T14:50:41.138Z,31.70
2019-06-08T14:53:11.100Z,31.70
2019-06-08T14:55:40.904Z,31.70
2019-06-08T14:58:11.059Z,31.60
2019-06-08T15:00:40.935Z,31.60
2019-06-08T15:03:12.849Z,31.60
2019-06-08T15:05:42.434Z,31.60
2019-06-08T15:08:12.440Z,31.50
2019-06-08T15:10:42.676Z,31.50
2019-06-08T15:13:12.828Z,31.50
2019-06-08T15:15:43.075Z,31.50
2019-06-08T15:18:13.305Z,31.50
2019-06-08T15:20:43.977Z,31.50
2019-06-08T15:23:16.853Z,31.40
2019-06-08T15:25:45.644Z,31.40
2019-06-08T15:28:18.103Z,31.40
2019-06-08T15:30:47.050Z,31.40
2019-06-08T15:33:18.183Z,31.40
2019-06-08T15:35:48.247Z,31.30
2019-06-08T15:38:20.860Z,31.30
2019-06-08T15:40:49.426Z,31.30
2019-06-08T15:43:19.246Z,31.20
2019-06-08T15:45:51.433Z,31.20
2019-06-08T15:48:20.458Z,31.20
2019-06-08T15:50:50.382Z,31.20
2019-06-08T15:53:20.120Z,31.20
2019-06-08T15:55:51.562Z,31.20
2019-06-08T15:58:21.029Z,31.10
2019-06-08T16:00:55.415Z,31.10
2019-06-08T16:03:23.157Z,31.20
2019-06-08T16:05:53.132Z,31.10
2019-06-08T16:08:23.711Z,31.10
2019-06-08T16:10:53.697Z,31.20
2019-06-08T16:13:24.704Z,31.10
2019-06-08T16:15:54.651Z,31.10
2019-06-08T16:18:25.436Z,31.10
2019-06-08T16:20:55.842Z,31.10
2019-06-08T16:23:25.772Z,31.00
2019-06-08T16:25:55.768Z,31.00
2019-06-08T16:28:27.738Z,31.00
2019-06-08T16:30:57.644Z,30.90
2019-06-08T16:33:29.201Z,30.90
2019-06-08T16:35:59.068Z,30.90
2019-06-08T16:38:30.587Z,30.90
2019-06-08T16:41:07.634Z,30.80
